Time;durP1;ratioP1;P1;durP2;ratioP2;P2;SDS_P1;SDS_P2;PMS_P1;PMS_P2;Temp;Humidity;BMP_temperature;BMP_pressure;BME280_temperature;BME280_humidity;BME280_pressure;Samples;Min_cycle;Max_cycle;Signal;HPM_P1;HPM_P2
2021/09/27 00:00:49;;;;;;;23.13;9.10;;;16.40;99.90;;;;;;5033902;28;20396;-75
2021/09/27 00:03:35;;;;;;;55.33;9.53;;;16.40;99.90;;;;;;5033918;28;20487;-76
2021/09/27 00:06:23;;;;;;;22.27;9.87;;;16.30;99.90;;;;;;5035537;28;20814;-75
2021/09/27 00:09:08;;;;;;;13.10;9.00;;;16.30;99.90;;;;;;5033587;28;20442;-76
2021/09/27 00:11:54;;;;;;;84.50;11.90;;;16.30;99.90;;;;;;5033928;28;20434;-75
2021/09/27 00:14:41;;;;;;;18.50;9.20;;;16.20;99.90;;;;;;5033254;28;20396;-75
2021/09/27 00:17:27;;;;;;;12.13;8.93;;;16.20;99.90;;;;;;5033817;28;20444;-76
2021/09/27 00:20:13;;;;;;;14.93;8.90;;;16.10;99.90;;;;;;5033846;28;20395;-75
2021/09/27 00:23:01;;;;;;;19.83;9.70;;;16.10;99.90;;;;;;5032288;28;20399;-74
2021/09/27 00:25:47;;;;;;;11.00;7.67;;;16.20;99.90;;;;;;5033063;28;20444;-75
2021/09/27 00:28:34;;;;;;;8.80;7.90;;;16.20;99.90;;;;;;5033673;28;20552;-74
2021/09/27 00:31:19;;;;;;;10.00;8.60;;;16.20;99.90;;;;;;5033423;28;20444;-75
2021/09/27 00:34:05;;;;;;;9.60;8.50;;;16.30;99.90;;;;;;5033395;28;20422;-76
2021/09/27 00:36:51;;;;;;;16.80;7.93;;;16.30;99.90;;;;;;5043321;28;20418;-75
2021/09/27 00:39:38;;;;;;;12.10;8.90;;;16.20;99.90;;;;;;5033225;28;20428;-75
2021/09/27 00:42:24;;;;;;;8.73;7.70;;;16.10;99.90;;;;;;5033113;28;20544;-74
2021/09/27 00:45:12;;;;;;;11.80;8.30;;;16.10;99.90;;;;;;5033188;28;20531;-75
2021/09/27 00:47:57;;;;;;;12.17;8.00;;;16.00;99.90;;;;;;5033268;28;20583;-75
2021/09/27 00:50:48;;;;;;;9.57;8.00;;;15.90;99.90;;;;;;5033108;28;20468;-75
2021/09/27 00:53:38;;;;;;;10.53;8.00;;;15.90;99.90;;;;;;5032916;28;20543;-76
2021/09/27 00:56:29;;;;;;;14.13;8.80;;;15.90;99.90;;;;;;5032453;28;20436;-75
2021/09/27 00:59:16;;;;;;;10.27;7.70;;;16.00;99.90;;;;;;5032845;28;20551;-76
2021/09/27 01:02:01;;;;;;;12.57;7.80;;;15.90;99.90;;;;;;5032850;28;20399;-75
2021/09/27 01:04:47;;;;;;;11.57;7.27;;;15.90;99.90;;;;;;5031851;28;20952;-76
2021/09/27 01:07:42;;;;;;;11.67;8.43;;;15.90;99.90;;;;;;5034884;28;20925;-75
2021/09/27 01:10:55;;;;;;;12.00;8.40;;;15.90;99.90;;;;;;5013018;28;20487;-75
2021/09/27 01:14:26;;;;;;;18.73;9.27;;;15.80;99.90;;;;;;5012776;28;20438;-75
2021/09/27 01:17:24;;;;;;;10.93;8.40;;;15.80;99.90;;;;;;4966953;28;20586;-76
2021/09/27 01:21:03;;;;;;;17.07;8.10;;;15.80;99.90;;;;;;5032429;28;20405;-76
2021/09/27 01:24:29;;;;;;;19.23;8.60;;;15.60;99.90;;;;;;5032253;28;20417;-75
2021/09/27 01:27:53;;;;;;;9.47;8.50;;;15.60;99.90;;;;;;5032355;28;20950;-75
2021/09/27 01:30:58;;;;;;;8.67;7.77;;;15.60;99.90;;;;;;5032246;28;20808;-75
2021/09/27 01:33:52;;;;;;;12.57;8.20;;;15.60;99.90;;;;;;5032197;28;20396;-75
2021/09/27 01:36:46;;;;;;;10.87;8.17;;;15.60;99.90;;;;;;5033709;28;20460;-75
2021/09/27 01:39:41;;;;;;;13.87;8.57;;;15.50;99.90;;;;;;5031971;28;20442;-75
2021/09/27 01:42:36;;;;;;;22.90;8.93;;;15.50;99.90;;;;;;5032049;28;20434;-73
2021/09/27 01:45:28;;;;;;;13.70;7.87;;;15.40;99.90;;;;;;5031827;28;20456;-74
2021/09/27 01:48:18;;;;;;;15.60;9.50;;;15.40;99.90;;;;;;5032136;28;20996;-75
2021/09/27 01:51:12;;;;;;;8.67;7.77;;;15.50;99.90;;;;;;5031872;28;20439;-75
2021/09/27 01:54:05;;;;;;;15.73;7.17;;;15.40;99.90;;;;;;5031754;28;20433;-75
2021/09/27 01:56:57;;;;;;;7.67;6.97;;;15.30;99.90;;;;;;5031341;28;20439;-75
2021/09/27 01:59:52;;;;;;;8.57;7.13;;;15.30;99.90;;;;;;5031653;28;20937;-75
2021/09/27 02:02:43;;;;;;;10.37;7.83;;;15.40;99.90;;;;;;5031818;28;20433;-76
2021/09/27 02:05:34;;;;;;;13.50;8.23;;;15.40;99.90;;;;;;5031295;28;20419;-75
2021/09/27 02:08:31;;;;;;;17.30;7.80;;;15.30;99.90;;;;;;5031449;28;20387;-73
2021/09/27 02:11:24;;;;;;;11.27;7.27;;;15.20;99.90;;;;;;5031801;28;20438;-75
2021/09/27 02:14:14;;;;;;;80.70;9.07;;;15.20;99.90;;;;;;5031250;28;20496;-75
2021/09/27 02:17:04;;;;;;;10.77;8.33;;;15.00;99.90;;;;;;5031368;28;20485;-76
2021/09/27 02:19:57;;;;;;;14.50;7.37;;;15.00;99.90;;;;;;5031497;28;20946;-76
2021/09/27 02:22:50;;;;;;;25.43;7.20;;;15.00;99.90;;;;;;5031201;28;20845;-76
2021/09/27 02:25:41;;;;;;;11.20;7.27;;;15.00;99.90;;;;;;5031183;28;20415;-75
2021/09/27 02:28:28;;;;;;;7.90;7.10;;;15.00;99.90;;;;;;5031457;28;20418;-75
2021/09/27 02:31:19;;;;;;;7.67;6.93;;;15.00;99.90;;;;;;5031299;28;20488;-75
2021/09/27 02:34:10;;;;;;;7.10;6.20;;;15.10;99.90;;;;;;5031211;28;20759;-74
2021/09/27 02:37:03;;;;;;;9.67;6.80;;;15.20;99.90;;;;;;5031180;28;20395;-75
2021/09/27 02:39:54;;;;;;;9.37;8.37;;;15.30;99.90;;;;;;5031082;28;20515;-75
2021/09/27 02:42:47;;;;;;;8.70;6.80;;;15.50;99.90;;;;;;5031266;28;20391;-75
2021/09/27 02:45:34;;;;;;;11.07;6.63;;;15.50;99.90;;;;;;5030810;28;20544;-76
2021/09/27 02:48:31;;;;;;;15.97;6.70;;;15.50;99.90;;;;;;5031143;28;20415;-75
2021/09/27 02:51:17;;;;;;;8.40;7.00;;;15.50;99.90;;;;;;5031289;28;20608;-75
2021/09/27 02:54:02;;;;;;;8.17;6.70;;;15.60;99.90;;;;;;5030943;28;20403;-75
2021/09/27 02:57:00;;;;;;;15.40;6.73;;;15.50;99.90;;;;;;5030604;28;20476;-75
2021/09/27 02:59:59;;;;;;;21.57;7.77;;;15.50;99.90;;;;;;5030937;28;20403;-75
2021/09/27 03:02:57;;;;;;;7.77;6.20;;;15.50;99.90;;;;;;5031062;28;20912;-75
2021/09/27 03:05:53;;;;;;;9.10;7.40;;;15.50;99.90;;;;;;5031800;28;20794;-75
2021/09/27 03:08:49;;;;;;;14.40;7.10;;;15.50;99.90;;;;;;5026108;28;20420;-76
2021/09/27 03:11:58;;;;;;;14.03;7.37;;;15.50;99.90;;;;;;5030980;28;20482;-75
2021/09/27 03:15:02;;;;;;;13.93;7.30;;;15.40;99.90;;;;;;5030343;28;20564;-75
2021/09/27 03:17:54;;;;;;;7.40;6.60;;;15.40;99.90;;;;;;5031039;28;20780;-75
2021/09/27 03:20:52;;;;;;;17.43;9.90;;;15.30;99.90;;;;;;5030857;28;20509;-75
2021/09/27 03:23:51;;;;;;;11.07;9.47;;;15.20;99.90;;;;;;5030942;28;20770;-75
2021/09/27 03:26:46;;;;;;;10.90;9.20;;;15.20;99.90;;;;;;5031700;28;20437;-75
2021/09/27 03:29:43;;;;;;;14.20;9.57;;;15.20;99.90;;;;;;5034821;28;20429;-76
2021/09/27 03:32:42;;;;;;;13.40;9.73;;;15.40;99.90;;;;;;5034534;28;20392;-74
2021/09/27 03:35:37;;;;;;;10.10;8.10;;;15.50;99.90;;;;;;5033876;28;20411;-76
2021/09/27 03:38:29;;;;;;;13.83;8.93;;;15.60;99.90;;;;;;5034295;28;20448;-74
2021/09/27 03:41:25;;;;;;;11.07;8.57;;;15.70;99.90;;;;;;5034466;28;20424;-74
2021/09/27 03:44:22;;;;;;;11.27;8.50;;;15.70;99.90;;;;;;5034022;28;20458;-74
2021/09/27 03:47:12;;;;;;;15.13;9.13;;;15.70;99.90;;;;;;5034626;28;20459;-75
2021/09/27 03:50:08;;;;;;;17.77;8.77;;;15.80;99.90;;;;;;5034388;28;20938;-76
2021/09/27 03:52:58;;;;;;;21.17;9.67;;;15.80;99.90;;;;;;5034379;28;20516;-75
2021/09/27 03:55:50;;;;;;;47.87;11.30;;;15.80;99.90;;;;;;5034371;28;20423;-75
2021/09/27 03:58:40;;;;;;;15.50;11.67;;;15.60;99.90;;;;;;5034045;28;20492;-75
2021/09/27 04:01:36;;;;;;;21.17;11.10;;;15.50;99.90;;;;;;5034073;28;20522;-75
2021/09/27 04:04:35;;;;;;;31.93;10.63;;;15.60;99.90;;;;;;5034021;28;20393;-75
2021/09/27 04:07:48;;;;;;;20.47;11.30;;;15.60;99.90;;;;;;5036078;28;20396;-75
2021/09/27 04:10:45;;;;;;;23.07;11.83;;;15.60;99.90;;;;;;5014375;28;20462;-75
2021/09/27 04:13:39;;;;;;;17.90;11.93;;;15.60;99.90;;;;;;5014074;28;20947;-75
2021/09/27 04:16:37;;;;;;;49.90;11.43;;;15.50;99.90;;;;;;5013613;28;20425;-75
2021/09/27 04:19:28;;;;;;;28.13;11.20;;;15.60;99.90;;;;;;5013773;28;20426;-75
2021/09/27 04:22:19;;;;;;;18.83;11.90;;;15.60;99.90;;;;;;5013914;28;20421;-75
2021/09/27 04:25:20;;;;;;;22.50;11.80;;;15.60;99.90;;;;;;5013316;28;20445;-75
2021/09/27 04:28:35;;;;;;;19.00;11.70;;;15.60;99.90;;;;;;5013971;28;20418;-75
2021/09/27 04:31:32;;;;;;;26.37;11.23;;;15.50;99.90;;;;;;5013599;28;20519;-75
2021/09/27 04:34:27;;;;;;;17.07;10.67;;;15.50;99.90;;;;;;5013601;28;20418;-75
2021/09/27 04:37:17;;;;;;;17.73;12.43;;;15.40;99.90;;;;;;5032396;28;20479;-75
2021/09/27 04:40:04;;;;;;;16.03;11.17;;;15.40;99.90;;;;;;5032984;28;20422;-75
2021/09/27 04:43:22;;;;;;;12.40;11.07;;;15.40;99.90;;;;;;5033302;28;20405;-76
2021/09/27 04:46:14;;;;;;;16.00;11.27;;;15.50;99.90;;;;;;5032637;28;20445;-75
2021/09/27 04:49:26;;;;;;;12.20;10.50;;;15.50;99.90;;;;;;5033087;28;20416;-75
2021/09/27 04:52:20;;;;;;;14.57;10.07;;;15.50;99.90;;;;;;5033034;28;20458;-75
2021/09/27 04:55:34;;;;;;;25.90;11.40;;;15.40;99.90;;;;;;5032412;28;20984;-75
2021/09/27 04:58:43;;;;;;;15.77;10.33;;;15.30;99.90;;;;;;5029554;28;20575;-75
2021/09/27 05:01:42;;;;;;;34.97;11.63;;;15.30;99.90;;;;;;5032831;28;20392;-75
2021/09/27 05:04:39;;;;;;;47.63;10.60;;;15.20;99.90;;;;;;5032668;28;20417;-75
2021/09/27 05:08:07;;;;;;;39.27;12.17;;;15.20;99.90;;;;;;5034829;28;20401;-75
2021/09/27 05:11:20;;;;;;;30.83;10.10;;;15.10;99.90;;;;;;5012716;28;20440;-75
2021/09/27 05:14:30;;;;;;;37.37;9.97;;;15.10;99.90;;;;;;5012838;28;21039;-76
2021/09/27 05:17:33;;;;;;;12.80;8.90;;;15.00;99.90;;;;;;5012796;28;20399;-76
2021/09/27 05:20:39;;;;;;;18.87;10.40;;;14.90;99.90;;;;;;5013077;28;20469;-76
2021/09/27 05:23:32;;;;;;;42.37;9.90;;;15.00;99.90;;;;;;5012871;28;20421;-76
2021/09/27 05:26:35;;;;;;;11.30;10.00;;;15.00;99.90;;;;;;5012625;28;20420;-75
2021/09/27 05:29:36;;;;;;;57.70;11.83;;;15.00;99.90;;;;;;5012769;28;20791;-76
2021/09/27 05:32:35;;;;;;;11.07;9.90;;;15.00;99.90;;;;;;5012665;28;20527;-75
2021/09/27 05:35:59;;;;;;;27.67;9.83;;;15.10;99.90;;;;;;5024854;28;20872;-75
2021/09/27 05:38:55;;;;;;;11.47;8.70;;;15.10;99.90;;;;;;5032059;28;20471;-76
2021/09/27 05:42:02;;;;;;;21.67;8.20;;;15.20;99.90;;;;;;5032143;28;20954;-75
2021/09/27 05:45:01;;;;;;;31.30;9.37;;;15.20;99.90;;;;;;5031817;28;20559;-75
2021/09/27 05:47:54;;;;;;;59.70;8.47;;;15.30;99.90;;;;;;5032089;28;20438;-75
2021/09/27 05:50:47;;;;;;;10.43;9.00;;;15.20;99.90;;;;;;5031782;28;20407;-75
2021/09/27 05:53:42;;;;;;;30.23;9.77;;;15.10;99.90;;;;;;5031930;28;20530;-75
2021/09/27 05:56:35;;;;;;;64.23;9.77;;;15.10;99.90;;;;;;5031264;28;20431;-75
2021/09/27 05:59:27;;;;;;;26.60;9.47;;;15.10;99.90;;;;;;5031734;28;20504;-76
2021/09/27 06:02:30;;;;;;;10.10;9.00;;;15.20;99.90;;;;;;5031819;28;20473;-75
2021/09/27 06:05:21;;;;;;;11.00;9.90;;;15.20;99.90;;;;;;5031119;28;20422;-75
2021/09/27 06:08:15;;;;;;;15.70;9.63;;;15.30;99.90;;;;;;5032418;28;20499;-76
2021/09/27 06:11:12;;;;;;;17.13;12.27;;;15.30;99.90;;;;;;5031417;28;20482;-75
2021/09/27 06:13:58;;;;;;;44.77;20.17;;;15.30;99.90;;;;;;5031764;28;20532;-75
2021/09/27 06:16:58;;;;;;;28.43;19.63;;;15.40;99.90;;;;;;5031181;28;20571;-75
2021/09/27 06:19:49;;;;;;;36.77;19.30;;;15.40;99.90;;;;;;5031490;28;20511;-75
2021/09/27 06:22:50;;;;;;;31.03;16.90;;;15.50;99.90;;;;;;5031551;28;20392;-75
2021/09/27 06:25:41;;;;;;;30.57;12.83;;;15.50;99.90;;;;;;5023971;28;20507;-76
2021/09/27 06:28:34;;;;;;;27.20;11.20;;;15.40;99.90;;;;;;5029654;28;20542;-75
2021/09/27 06:31:26;;;;;;;25.00;11.00;;;15.30;99.90;;;;;;5030931;28;20481;-75
2021/09/27 06:34:16;;;;;;;35.83;11.80;;;15.30;99.90;;;;;;5031164;28;20475;-75
2021/09/27 06:37:04;;;;;;;22.60;11.00;;;15.20;99.90;;;;;;5033310;28;20811;-76
2021/09/27 06:39:51;;;;;;;31.43;11.20;;;15.00;99.90;;;;;;5031292;28;20445;-76
2021/09/27 06:42:36;;;;;;;33.13;11.87;;;14.90;99.90;;;;;;5025921;28;20401;-76
2021/09/27 06:45:22;;;;;;;25.80;11.80;;;14.90;99.90;;;;;;5027200;28;20470;-75
2021/09/27 06:48:08;;;;;;;15.40;11.93;;;15.00;99.90;;;;;;5031075;28;20419;-76
2021/09/27 06:50:57;;;;;;;87.10;13.23;;;15.10;99.90;;;;;;5031247;28;20399;-76
2021/09/27 06:53:44;;;;;;;78.70;11.90;;;15.20;99.90;;;;;;5030880;28;21001;-76
2021/09/27 06:56:30;;;;;;;52.40;13.00;;;15.30;99.90;;;;;;5030469;28;21019;-73
2021/09/27 06:59:18;;;;;;;60.47;11.63;;;15.30;99.90;;;;;;5031085;28;20905;-73
2021/09/27 07:02:04;;;;;;;34.97;11.80;;;15.50;99.90;;;;;;5033305;28;20470;-73
2021/09/27 07:04:51;;;;;;;13.57;11.07;;;15.50;99.90;;;;;;5034092;28;20926;-75
2021/09/27 07:07:38;;;;;;;12.67;9.80;;;15.60;99.90;;;;;;5037102;28;20429;-75
2021/09/27 07:10:26;;;;;;;17.03;9.00;;;15.70;99.90;;;;;;5015197;28;20395;-76
2021/09/27 07:13:14;;;;;;;18.17;10.17;;;15.80;99.90;;;;;;5015026;28;20577;-75
2021/09/27 07:15:59;;;;;;;69.87;9.90;;;15.80;99.90;;;;;;5014239;28;20412;-75
2021/09/27 07:18:45;;;;;;;15.30;9.63;;;15.70;99.90;;;;;;5017085;28;20450;-75
2021/09/27 07:21:31;;;;;;;10.60;8.40;;;15.60;99.90;;;;;;5032463;28;20551;-75
2021/09/27 07:24:17;;;;;;;10.17;9.17;;;15.70;99.90;;;;;;5033888;28;20414;-75
2021/09/27 07:27:04;;;;;;;25.20;8.93;;;15.90;99.90;;;;;;5030426;28;20765;-75
2021/09/27 07:29:50;;;;;;;8.83;7.90;;;16.00;99.90;;;;;;5032018;28;20436;-76
2021/09/27 07:32:36;;;;;;;9.23;8.27;;;16.00;99.90;;;;;;5029607;28;20570;-77
2021/09/27 07:35:27;;;;;;;9.23;8.23;;;16.10;99.90;;;;;;5027311;28;20447;-76
2021/09/27 07:38:13;;;;;;;8.43;7.40;;;16.10;99.90;;;;;;5032805;28;20918;-77
2021/09/27 07:40:59;;;;;;;7.43;6.70;;;16.20;99.90;;;;;;5025515;28;21061;-76
2021/09/27 07:43:47;;;;;;;8.67;7.27;;;16.20;99.90;;;;;;5030412;28;20421;-75
2021/09/27 07:46:33;;;;;;;8.57;7.73;;;16.30;99.90;;;;;;5023338;28;21013;-74
2021/09/27 07:49:18;;;;;;;15.33;11.23;;;16.50;99.90;;;;;;5026314;28;20449;-75
2021/09/27 07:52:05;;;;;;;27.37;24.50;;;16.60;99.90;;;;;;5033974;28;20495;-75
2021/09/27 07:54:51;;;;;;;32.00;24.17;;;16.80;99.90;;;;;;5023556;28;20492;-75
2021/09/27 07:57:37;;;;;;;23.43;18.13;;;17.10;99.90;;;;;;5031857;28;20445;-75
2021/09/27 08:00:24;;;;;;;15.73;13.67;;;17.30;99.90;;;;;;5032700;28;20449;-75
2021/09/27 08:03:10;;;;;;;19.03;11.37;;;17.40;99.90;;;;;;5029728;28;20400;-75
2021/09/27 08:05:56;;;;;;;12.03;10.47;;;17.60;99.90;;;;;;5028243;28;20447;-75
2021/09/27 08:08:42;;;;;;;15.50;10.30;;;17.70;99.90;;;;;;5033532;28;20425;-74
2021/09/27 08:11:27;;;;;;;12.90;9.97;;;17.80;99.90;;;;;;5025986;28;20525;-75
2021/09/27 08:14:14;;;;;;;11.70;9.53;;;17.90;99.90;;;;;;5027621;28;20551;-75
2021/09/27 08:17:01;;;;;;;17.57;13.53;;;18.00;99.90;;;;;;5024717;28;21314;-75
2021/09/27 08:19:47;;;;;;;18.23;12.30;;;18.10;99.90;;;;;;5031202;28;20416;-75
2021/09/27 08:22:33;;;;;;;16.73;11.73;;;18.20;99.90;;;;;;5029450;28;20412;-75
2021/09/27 08:25:18;;;;;;;12.97;11.57;;;18.20;99.90;;;;;;5022777;28;20436;-76
2021/09/27 08:28:05;;;;;;;11.67;10.27;;;18.20;99.90;;;;;;5026648;28;20520;-76
2021/09/27 08:30:53;;;;;;;13.03;11.03;;;18.10;99.90;;;;;;5028305;28;20467;-76
2021/09/27 08:33:41;;;;;;;13.87;12.07;;;18.10;99.90;;;;;;5024512;28;20476;-74
2021/09/27 08:36:28;;;;;;;11.63;10.10;;;18.00;99.90;;;;;;5028877;28;20682;-76
2021/09/27 08:39:14;;;;;;;13.17;11.07;;;17.90;99.90;;;;;;5028905;28;20617;-76
2021/09/27 08:42:03;;;;;;;11.80;10.47;;;17.90;99.90;;;;;;5026407;28;20517;-75
2021/09/27 08:44:52;;;;;;;15.10;10.83;;;17.80;99.90;;;;;;5021937;28;20492;-76
2021/09/27 08:47:47;;;;;;;12.60;10.40;;;17.80;99.90;;;;;;5027327;28;20524;-75
2021/09/27 08:50:38;;;;;;;13.37;10.40;;;17.80;99.90;;;;;;5023079;28;20428;-76
2021/09/27 08:53:26;;;;;;;12.67;10.50;;;17.70;99.90;;;;;;5020172;28;20444;-76
2021/09/27 08:56:22;;;;;;;13.17;11.30;;;17.70;99.90;;;;;;5031056;28;20484;-76
2021/09/27 08:59:15;;;;;;;13.00;10.97;;;17.80;99.90;;;;;;5024284;28;20947;-76
2021/09/27 09:02:06;;;;;;;16.43;13.00;;;17.80;99.90;;;;;;5030458;28;20432;-76
2021/09/27 09:05:06;;;;;;;14.43;12.20;;;17.80;99.90;;;;;;5029475;28;20420;-76
2021/09/27 09:08:01;;;;;;;18.47;13.70;;;17.80;99.90;;;;;;5033987;28;20452;-76
2021/09/27 09:10:57;;;;;;;20.73;13.27;;;17.80;99.90;;;;;;5029533;28;20967;-76
2021/09/27 09:13:46;;;;;;;16.00;12.13;;;17.90;99.90;;;;;;5028427;28;20865;-76
2021/09/27 09:16:34;;;;;;;17.37;13.80;;;17.90;99.90;;;;;;5013308;28;20528;-76
2021/09/27 09:19:23;;;;;;;15.10;13.03;;;17.90;99.90;;;;;;5021222;28;20416;-76
2021/09/27 09:22:26;;;;;;;15.83;12.17;;;17.90;99.90;;;;;;5020538;28;20420;-76
2021/09/27 09:25:21;;;;;;;14.60;12.40;;;17.90;99.90;;;;;;5024531;28;20512;-76
2021/09/27 09:28:10;;;;;;;14.67;11.07;;;18.00;99.90;;;;;;5027583;28;20470;-75
2021/09/27 09:31:04;;;;;;;14.97;12.37;;;18.20;99.90;;;;;;5029927;28;21019;-74
2021/09/27 09:33:54;;;;;;;12.80;11.50;;;18.30;99.90;;;;;;5027816;28;20544;-75
2021/09/27 09:36:41;;;;;;;21.27;10.70;;;18.50;99.90;;;;;;5028986;28;20799;-75
2021/09/27 09:39:31;;;;;;;12.17;10.87;;;18.60;99.90;;;;;;5028390;28;20437;-75
2021/09/27 09:42:30;;;;;;;16.83;9.90;;;18.80;99.90;;;;;;5029747;28;20429;-73
2021/09/27 09:45:22;;;;;;;16.60;11.60;;;18.90;99.90;;;;;;5021808;28;20572;-74
2021/09/27 09:48:20;;;;;;;12.10;10.83;;;18.90;99.90;;;;;;5024942;28;20828;-75
2021/09/27 09:51:23;;;;;;;19.70;13.07;;;18.90;99.90;;;;;;5031481;28;20399;-75
2021/09/27 09:54:13;;;;;;;12.77;10.80;;;18.90;99.90;;;;;;5030846;28;20466;-74
2021/09/27 09:57:06;;;;;;;10.73;9.60;;;18.90;99.90;;;;;;5039238;22;20480;-74
2021/09/27 10:00:01;;;;;;;11.90;9.60;;;19.00;99.90;;;;;;5029849;28;20404;-74
2021/09/27 10:02:52;;;;;;;11.30;8.90;;;19.00;99.90;;;;;;5031852;28;20496;-75
2021/09/27 10:05:41;;;;;;;12.70;9.90;;;19.10;99.90;;;;;;5014092;28;21073;-74
2021/09/27 10:08:27;;;;;;;10.20;8.83;;;19.20;99.90;;;;;;5028255;28;20489;-75
2021/09/27 10:11:16;;;;;;;14.50;9.50;;;19.20;99.90;;;;;;5026997;28;20445;-74
2021/09/27 10:14:18;;;;;;;12.73;9.07;;;19.30;99.90;;;;;;5026167;28;20469;-74
2021/09/27 10:17:28;;;;;;;12.50;8.40;;;19.60;99.90;;;;;;5030179;28;20528;-75
2021/09/27 10:20:18;;;;;;;10.77;8.50;;;19.70;99.90;;;;;;5030108;28;20775;-73
2021/09/27 10:23:11;;;;;;;9.90;8.13;;;19.80;99.90;;;;;;5031095;28;20524;-73
2021/09/27 10:26:11;;;;;;;9.87;7.50;;;19.90;99.90;;;;;;5020367;28;20447;-74
2021/09/27 10:29:02;;;;;;;9.87;7.57;;;19.90;99.90;;;;;;5029496;28;20393;-75
2021/09/27 10:31:56;;;;;;;9.90;7.80;;;20.00;99.90;;;;;;5024885;28;20945;-74
2021/09/27 10:34:43;;;;;;;8.50;7.30;;;20.10;99.90;;;;;;5027053;28;21030;-74
2021/09/27 10:37:29;;;;;;;7.80;6.00;;;20.20;99.90;;;;;;5035244;28;20998;-74
2021/09/27 10:40:20;;;;;;;7.73;6.00;;;20.30;99.90;;;;;;5030760;28;20412;-74
2021/09/27 10:43:11;;;;;;;11.10;6.43;;;20.30;99.90;;;;;;5031105;28;20389;-74
2021/09/27 10:46:01;;;;;;;8.20;6.27;;;20.50;99.90;;;;;;5030933;28;20427;-74
2021/09/27 10:48:52;;;;;;;7.80;5.90;;;20.70;99.90;;;;;;5030987;28;20455;-74
2021/09/27 10:51:40;;;;;;;8.33;5.90;;;21.10;99.90;;;;;;5027470;28;20655;-74
2021/09/27 10:54:35;;;;;;;9.87;5.00;;;21.30;99.90;;;;;;5030830;28;20440;-74
2021/09/27 10:57:24;;;;;;;12.10;5.20;;;21.50;99.90;;;;;;5031085;28;20446;-74
2021/09/27 11:00:19;;;;;;;5.03;4.50;;;21.80;99.90;;;;;;5031027;28;20401;-74
2021/09/27 11:03:13;;;;;;;6.00;4.23;;;21.90;99.90;;;;;;5031022;28;20411;-74
2021/09/27 11:06:13;;;;;;;6.13;5.10;;;22.00;99.90;;;;;;5026474;28;20977;-74
2021/09/27 11:09:07;;;;;;;7.50;4.60;;;22.10;99.90;;;;;;5030187;28;20422;-76
2021/09/27 11:11:59;;;;;;;6.00;5.10;;;22.00;99.90;;;;;;5022682;28;20502;-74
2021/09/27 11:14:51;;;;;;;6.70;4.80;;;22.00;99.90;;;;;;5026197;28;20439;-77
2021/09/27 11:17:47;;;;;;;8.80;5.00;;;22.00;99.90;;;;;;5017389;28;20486;-77
2021/09/27 11:21:02;;;;;;;5.50;4.53;;;22.10;99.90;;;;;;5025133;28;20421;-76
2021/09/27 11:23:52;;;;;;;5.70;4.57;;;22.10;99.90;;;;;;5024093;28;20499;-76
2021/09/27 11:26:44;;;;;;;6.77;5.00;;;22.20;99.90;;;;;;5019755;28;20559;-76
2021/09/27 11:29:45;;;;;;;6.47;5.57;;;22.00;99.90;;;;;;5024741;28;20411;-76
2021/09/27 11:32:47;;;;;;;9.13;6.40;;;22.00;99.90;;;;;;5016750;28;20450;-76
2021/09/27 11:35:42;;;;;;;8.50;6.70;;;22.10;99.90;;;;;;5022786;28;20413;-77
2021/09/27 11:38:34;;;;;;;8.57;6.60;;;22.30;99.90;;;;;;5020677;28;20468;-77
2021/09/27 11:41:32;;;;;;;8.60;6.77;;;22.40;99.90;;;;;;5018888;28;20475;-77
2021/09/27 11:44:25;;;;;;;7.43;5.67;;;22.50;99.90;;;;;;5027877;28;20457;-77
2021/09/27 11:47:15;;;;;;;8.23;5.67;;;22.70;99.90;;;;;;5026865;28;20783;-77
2021/09/27 11:50:05;;;;;;;6.00;5.40;;;22.80;99.90;;;;;;5032629;28;21018;-76
2021/09/27 11:52:56;;;;;;;6.33;4.93;;;22.80;99.90;;;;;;5032482;28;20470;-79
2021/09/27 11:55:45;;;;;;;9.63;5.37;;;22.60;99.90;;;;;;5027404;28;20452;-79
2021/09/27 11:58:36;;;;;;;8.30;6.57;;;22.30;99.90;;;;;;5030987;28;20573;-79
2021/09/27 12:01:36;;;;;;;9.80;6.60;;;22.10;99.90;;;;;;5032951;28;20965;-74
2021/09/27 12:04:48;;;;;;;7.80;6.70;;;21.90;99.90;;;;;;5024764;28;20443;-76
2021/09/27 12:07:41;;;;;;;5.93;5.33;;;21.70;99.90;;;;;;5031773;28;20458;-74
2021/09/27 12:10:30;;;;;;;6.73;5.20;;;21.50;99.90;;;;;;5032957;28;20808;-74
2021/09/27 12:13:21;;;;;;;9.10;5.67;;;21.40;99.90;;;;;;5033690;28;20603;-73
2021/09/27 12:16:15;;;;;;;7.77;5.70;;;21.20;99.90;;;;;;5031296;28;20545;-74
2021/09/27 12:19:16;;;;;;;6.90;5.50;;;21.20;99.90;;;;;;5028909;28;20450;-74
2021/09/27 12:22:06;;;;;;;6.13;4.70;;;21.20;99.90;;;;;;5032906;28;20449;-74
2021/09/27 12:24:52;;;;;;;8.23;6.20;;;21.20;99.90;;;;;;5027909;28;21010;-73
2021/09/27 12:27:49;;;;;;;7.63;5.97;;;21.20;99.90;;;;;;5032492;28;20498;-74
2021/09/27 12:30:39;;;;;;;5.43;4.90;;;21.20;99.90;;;;;;5017940;28;20545;-74
2021/09/27 12:33:26;;;;;;;6.33;4.87;;;21.00;99.90;;;;;;5025253;28;20456;-75
2021/09/27 12:36:20;;;;;;;5.43;4.50;;;21.00;99.90;;;;;;5034316;28;20948;-74
2021/09/27 12:39:08;;;;;;;8.90;5.17;;;20.90;99.90;;;;;;5024438;28;20507;-75
2021/09/27 12:41:55;;;;;;;6.67;4.90;;;20.90;99.90;;;;;;5032170;28;20421;-74
2021/09/27 12:44:46;;;;;;;7.00;4.10;;;20.90;99.90;;;;;;5030797;28;20446;-74
2021/09/27 12:47:32;;;;;;;5.70;4.23;;;20.90;99.90;;;;;;5020724;28;20445;-76
2021/09/27 12:50:22;;;;;;;5.37;4.20;;;20.90;99.90;;;;;;5026507;28;20440;-74
2021/09/27 12:53:15;;;;;;;4.13;3.73;;;21.00;99.90;;;;;;5016576;28;20563;-74
2021/09/27 12:56:01;;;;;;;4.77;3.27;;;21.10;99.90;;;;;;5029500;28;20790;-75
2021/09/27 12:58:52;;;;;;;4.50;3.90;;;21.00;99.90;;;;;;5030681;28;20473;-74
2021/09/27 13:01:44;;;;;;;7.63;4.03;;;21.10;99.90;;;;;;5018511;28;20554;-75
2021/09/27 13:04:37;;;;;;;8.23;4.40;;;21.20;99.90;;;;;;5031560;28;20442;-74
2021/09/27 13:07:24;;;;;;;7.40;4.40;;;21.20;99.90;;;;;;5027617;28;20438;-74
2021/09/27 13:10:23;;;;;;;7.40;4.70;;;21.20;99.90;;;;;;5030909;28;20416;-74
2021/09/27 13:13:14;;;;;;;7.43;3.43;;;21.20;99.90;;;;;;5032471;28;20832;-75
2021/09/27 13:16:02;;;;;;;6.77;4.70;;;21.20;99.90;;;;;;5032368;28;20392;-74
2021/09/27 13:18:48;;;;;;;7.77;4.10;;;21.20;99.90;;;;;;5027278;28;21071;-74
2021/09/27 13:21:45;;;;;;;5.33;3.60;;;21.30;99.90;;;;;;5021955;28;20465;-74
2021/09/27 13:24:31;;;;;;;6.17;4.37;;;21.40;99.90;;;;;;5025309;28;20451;-75
2021/09/27 13:27:27;;;;;;;7.70;3.73;;;21.50;99.90;;;;;;5011377;28;20414;-73
2021/09/27 13:30:20;;;;;;;7.80;4.27;;;21.50;99.90;;;;;;5011253;28;20459;-74
2021/09/27 13:33:12;;;;;;;8.40;4.53;;;21.60;99.90;;;;;;5011884;28;20819;-73
2021/09/27 13:36:02;;;;;;;5.37;3.70;;;21.70;99.90;;;;;;5027009;28;20493;-73
2021/09/27 13:38:55;;;;;;;4.20;3.80;;;21.90;99.90;;;;;;5028091;28;20455;-73
2021/09/27 13:41:48;;;;;;;5.50;4.10;;;21.80;99.90;;;;;;5029778;28;20458;-72
2021/09/27 13:44:50;;;;;;;6.60;4.13;;;21.80;99.90;;;;;;5027756;28;20910;-75
2021/09/27 13:47:36;;;;;;;4.13;3.70;;;21.90;99.90;;;;;;5031053;28;20417;-72
2021/09/27 13:50:21;;;;;;;4.60;3.60;;;22.10;99.90;;;;;;5031308;28;20537;-73
2021/09/27 13:53:11;;;;;;;6.73;3.50;;;22.20;99.90;;;;;;5024294;28;20487;-74
2021/09/27 13:55:59;;;;;;;5.47;3.63;;;22.10;99.90;;;;;;5011882;28;20473;-73
2021/09/27 13:58:46;;;;;;;5.67;4.20;;;22.20;99.90;;;;;;5017901;28;20444;-73
2021/09/27 14:01:34;;;;;;;4.77;3.60;;;22.40;99.90;;;;;;5031574;28;20477;-73
2021/09/27 14:04:19;;;;;;;5.77;4.43;;;22.50;99.90;;;;;;5024339;28;20427;-75
2021/09/27 14:07:05;;;;;;;5.40;3.67;;;22.40;99.90;;;;;;5031535;28;20529;-73
2021/09/27 14:09:51;;;;;;;3.90;3.50;;;22.20;99.90;;;;;;5031713;28;20394;-73
2021/09/27 14:12:37;;;;;;;4.73;3.40;;;22.10;99.90;;;;;;5031123;28;20377;-73
2021/09/27 14:15:23;;;;;;;4.60;3.37;;;22.00;99.90;;;;;;5031220;28;20446;-73
2021/09/27 14:18:10;;;;;;;7.20;3.50;;;21.90;99.90;;;;;;5031702;28;20511;-74
2021/09/27 14:20:56;;;;;;;8.10;5.17;;;21.80;99.90;;;;;;5031428;28;20426;-73
2021/09/27 14:23:42;;;;;;;9.17;3.87;;;21.80;99.90;;;;;;5026550;28;20541;-73
2021/09/27 14:26:32;;;;;;;7.30;4.83;;;21.80;99.90;;;;;;5010285;28;20405;-73
2021/09/27 14:29:17;;;;;;;4.50;4.00;;;21.80;99.90;;;;;;5018549;28;20416;-72
2021/09/27 14:32:03;;;;;;;5.73;4.40;;;21.90;99.90;;;;;;5029740;28;20570;-72
2021/09/27 14:34:50;;;;;;;5.17;3.60;;;21.90;99.90;;;;;;5030894;28;20453;-73
2021/09/27 14:37:36;;;;;;;4.73;3.57;;;21.80;99.90;;;;;;5024318;28;20426;-72
2021/09/27 14:40:24;;;;;;;8.80;4.10;;;21.80;99.90;;;;;;5028720;28;20424;-73
2021/09/27 14:43:10;;;;;;;5.67;3.90;;;21.80;99.90;;;;;;5030412;28;20438;-72
2021/09/27 14:45:57;;;;;;;4.87;4.07;;;21.80;99.90;;;;;;5027649;28;20425;-72
2021/09/27 14:48:43;;;;;;;6.27;4.40;;;21.80;99.90;;;;;;5030333;28;20520;-74